createdAt,value
2017-06-09T00:00:50.979Z,1012.41
2017-06-09T00:02:01.236Z,1012.43
2017-06-09T00:03:10.871Z,1012.36
2017-06-09T00:04:21.129Z,1012.41
2017-06-09T00:05:31.393Z,1012.37
2017-06-09T00:06:41.342Z,1012.39
2017-06-09T00:07:51.602Z,1012.37
2017-06-09T00:09:01.865Z,1012.4
2017-06-09T00:10:12.018Z,1012.37
2017-06-09T00:11:21.662Z,1012.39
2017-06-09T00:12:31.610Z,1012.4
2017-06-09T00:13:41.562Z,1012.37
2017-06-09T00:14:51.511Z,1012.38
2017-06-09T00:16:01.776Z,1012.35
2017-06-09T00:17:11.416Z,1012.35
2017-06-09T00:18:21.688Z,1012.37
2017-06-09T00:19:31.638Z,1012.35
2017-06-09T00:20:41.892Z,1012.32
2017-06-09T00:21:52.162Z,1012.32
2017-06-09T00:23:02.426Z,1012.32
2017-06-09T00:24:12.689Z,1012.25
2017-06-09T00:25:22.323Z,1012.26
2017-06-09T00:26:32.592Z,1012.24
2017-06-09T00:27:42.689Z,1012.25
2017-06-09T00:28:52.326Z,1012.27
2017-06-09T00:30:02.628Z,1012.22
2017-06-09T00:31:12.592Z,1012.25
2017-06-09T00:32:22.541Z,1012.22
2017-06-09T00:33:32.494Z,1012.25
2017-06-09T00:34:42.453Z,1012.22
2017-06-09T00:35:52.404Z,1012.22
2017-06-09T00:37:01.732Z,1012.23
2017-06-09T00:38:11.687Z,1012.2
2017-06-09T00:39:22.090Z,1012.18
2017-06-09T00:40:32.036Z,1012.19
2017-06-09T00:41:41.674Z,1012.19
2017-06-09T00:42:51.621Z,1012.17
2017-06-09T00:44:01.566Z,1012.18
2017-06-09T00:45:11.198Z,1012.18
2017-06-09T00:46:21.150Z,1012.18
2017-06-09T00:47:31.415Z,1012.16
2017-06-09T00:48:41.675Z,1012.14
2017-06-09T00:49:51.938Z,1012.16
2017-06-09T00:51:01.889Z,1012.13
2017-06-09T00:52:11.839Z,1012.13
2017-06-09T00:53:22.108Z,1012.11
2017-06-09T00:54:32.376Z,1012.12
2017-06-09T00:55:42.028Z,1012.1
2017-06-09T00:56:51.977Z,1012.07
2017-06-09T00:58:01.957Z,1012.11
2017-06-09T00:59:12.222Z,1012.06
2017-06-09T01:00:22.481Z,1012.07
2017-06-09T01:01:32.439Z,1012.06
2017-06-09T01:02:42.704Z,1011.98
2017-06-09T01:03:52.340Z,1012.03
2017-06-09T01:05:01.978Z,1012.02
2017-06-09T01:06:12.261Z,1011.98
2017-06-09T01:07:21.898Z,1011.99
2017-06-09T01:08:32.001Z,1011.97
2017-06-09T01:09:42.265Z,1011.93
2017-06-09T01:10:52.529Z,1011.9
2017-06-09T01:12:02.520Z,1011.91
2017-06-09T01:13:12.462Z,1011.9
2017-06-09T01:14:22.100Z,1011.85
2017-06-09T01:15:32.367Z,1011.86
2017-06-09T01:16:42.009Z,1011.83
2017-06-09T01:17:51.648Z,1011.83
2017-06-09T01:19:01.949Z,1011.81
2017-06-09T01:20:11.589Z,1011.83
2017-06-09T01:21:21.856Z,1011.79
2017-06-09T01:22:31.816Z,1011.78
2017-06-09T01:23:42.072Z,1011.79
2017-06-09T01:24:52.025Z,1011.79
2017-06-09T01:26:02.435Z,1011.76
2017-06-09T01:27:12.386Z,1011.72
2017-06-09T01:28:22.645Z,1011.7
2017-06-09T01:29:32.284Z,1011.7
2017-06-09T01:30:42.537Z,1011.67
2017-06-09T01:31:52.488Z,1011.7
2017-06-09T01:33:02.431Z,1011.69
2017-06-09T01:34:12.384Z,1011.67
2017-06-09T01:35:22.330Z,1011.62
2017-06-09T01:36:32.279Z,1011.58
2017-06-09T01:37:42.231Z,1011.59
2017-06-09T01:38:52.229Z,1011.53
2017-06-09T01:40:02.490Z,1011.53
2017-06-09T01:41:12.439Z,1011.52
2017-06-09T01:42:21.756Z,1011.48
2017-06-09T01:43:31.863Z,1011.5
2017-06-09T01:44:41.820Z,1011.46
2017-06-09T01:45:52.083Z,1011.46
2017-06-09T01:47:02.347Z,1011.46
2017-06-09T01:48:12.608Z,1011.43
2017-06-09T01:49:22.560Z,1011.43
2017-06-09T01:50:32.827Z,1011.43
2017-06-09T01:51:42.462Z,1011.39
2017-06-09T01:52:52.414Z,1011.38
2017-06-09T01:54:02.679Z,1011.39
2017-06-09T01:55:12.631Z,1011.35
2017-06-09T01:56:22.898Z,1011.38
2017-06-09T01:57:32.546Z,1011.38
2017-06-09T01:58:42.176Z,1011.35
2017-06-09T01:59:52.125Z,1011.33
2017-06-09T02:01:02.537Z,1011.31
2017-06-09T02:02:12.851Z,1011.29
2017-06-09T02:03:22.484Z,1011.28
2017-06-09T02:04:32.440Z,1011.31
2017-06-09T02:05:42.705Z,1011.3
2017-06-09T02:06:52.658Z,1011.3
2017-06-09T02:08:02.923Z,1011.28
2017-06-09T02:09:12.873Z,1011.27
2017-06-09T02:10:23.179Z,1011.26
2017-06-09T02:11:33.131Z,1011.26
2017-06-09T02:12:43.420Z,1011.23
2017-06-09T02:13:53.057Z,1011.24
2017-06-09T02:15:03.325Z,1011.22
2017-06-09T02:16:13.600Z,1011.23
2017-06-09T02:17:23.861Z,1011.24
2017-06-09T02:18:34.285Z,1011.22
2017-06-09T02:19:44.239Z,1011.25
2017-06-09T02:20:54.502Z,1011.22
2017-06-09T02:22:04.455Z,1011.21
2017-06-09T02:23:14.091Z,1011.18
2017-06-09T02:24:23.728Z,1011.14
2017-06-09T02:25:34.034Z,1011.16
2017-06-09T02:26:44.297Z,1011.18
2017-06-09T02:27:53.932Z,1011.18
2017-06-09T02:29:03.877Z,1011.17
2017-06-09T02:30:14.149Z,1011.17
2017-06-09T02:31:23.802Z,1011.15
2017-06-09T02:32:33.437Z,1011.15
2017-06-09T02:33:43.697Z,1011.15
2017-06-09T02:34:53.650Z,1011.17
2017-06-09T02:36:03.759Z,1011.17
2017-06-09T02:37:14.035Z,1011.17
2017-06-09T02:38:23.984Z,1011.18
2017-06-09T02:39:34.256Z,1011.17
2017-06-09T02:40:44.527Z,1011.17
2017-06-09T02:41:54.481Z,1011.16
2017-06-09T02:43:04.430Z,1011.17
2017-06-09T02:44:14.701Z,1011.18
2017-06-09T02:45:24.957Z,1011.16
2017-06-09T02:46:35.218Z,1011.14
2017-06-09T02:47:45.175Z,1011.12
2017-06-09T02:48:55.119Z,1011.12
2017-06-09T02:50:05.384Z,1011.14
2017-06-09T02:51:15.337Z,1011.13
2017-06-09T02:52:25.299Z,1011.16
2017-06-09T02:53:35.713Z,1011.19
2017-06-09T02:54:45.675Z,1011.15
2017-06-09T02:55:55.312Z,1011.11
2017-06-09T02:57:04.960Z,1011.12
2017-06-09T02:58:14.908Z,1011.16
2017-06-09T02:59:24.857Z,1011.2
2017-06-09T03:00:35.122Z,1011.18
2017-06-09T03:01:45.385Z,1011.18
2017-06-09T03:02:55.653Z,1011.16
2017-06-09T03:04:05.911Z,1011.15
2017-06-09T03:05:15.861Z,1011.15
2017-06-09T03:06:26.128Z,1011.14
2017-06-09T03:07:36.391Z,1011.16
2017-06-09T03:08:46.338Z,1011.14
2017-06-09T03:09:55.970Z,1011.16
2017-06-09T03:11:06.383Z,1011.17
2017-06-09T03:12:16.675Z,1011.22
2017-06-09T03:13:26.624Z,1011.19
2017-06-09T03:14:36.253Z,1011.22
2017-06-09T03:15:46.525Z,1011.22
2017-06-09T03:16:56.470Z,1011.22
2017-06-09T03:18:06.725Z,1011.26
2017-06-09T03:19:16.991Z,1011.27
2017-06-09T03:20:26.933Z,1011.32
2017-06-09T03:21:36.889Z,1011.33
2017-06-09T03:22:46.858Z,1011.33
2017-06-09T03:23:57.123Z,1011.37
2017-06-09T03:25:07.388Z,1011.35
2017-06-09T03:26:17.647Z,1011.37
2017-06-09T03:27:27.594Z,1011.36
2017-06-09T03:28:37.695Z,1011.4
2017-06-09T03:29:47.333Z,1011.42
2017-06-09T03:30:57.601Z,1011.41
2017-06-09T03:32:07.872Z,1011.43
2017-06-09T03:33:17.813Z,1011.47
2017-06-09T03:34:28.082Z,1011.47
2017-06-09T03:35:38.030Z,1011.48
2017-06-09T03:36:47.667Z,1011.42
2017-06-09T03:37:57.298Z,1011.44
2017-06-09T03:39:07.564Z,1011.47
2017-06-09T03:40:17.513Z,1011.48
2017-06-09T03:41:27.794Z,1011.53
2017-06-09T03:42:37.743Z,1011.53
2017-06-09T03:43:48.045Z,1011.51
2017-06-09T03:44:58.308Z,1011.52
2017-06-09T03:46:08.402Z,1011.48
2017-06-09T03:47:18.352Z,1011.45
2017-06-09T03:48:28.314Z,1011.42
2017-06-09T03:49:38.618Z,1011.39
2017-06-09T03:50:48.879Z,1011.38
2017-06-09T03:51:58.827Z,1011.37
2017-06-09T03:53:08.785Z,1011.36
2017-06-09T03:54:19.041Z,1011.32
2017-06-09T03:55:28.989Z,1011.4
2017-06-09T03:56:39.252Z,1011.38
2017-06-09T03:57:48.577Z,1011.39
2017-06-09T03:58:58.527Z,1011.39
2017-06-09T04:00:08.474Z,1011.41
2017-06-09T04:01:18.747Z,1011.38
2017-06-09T04:02:29.008Z,1011.41
2017-06-09T04:03:38.796Z,1011.45
2017-06-09T04:04:49.060Z,1011.47
2017-06-09T04:05:58.383Z,1011.49
2017-06-09T04:07:08.342Z,1011.49
2017-06-09T04:08:18.293Z,1011.48
2017-06-09T04:09:28.559Z,1011.47
2017-06-09T04:10:38.821Z,1011.45
2017-06-09T04:11:48.138Z,1011.46
2017-06-09T04:12:57.774Z,1011.42
2017-06-09T04:14:07.739Z,1011.43
2017-06-09T04:15:17.693Z,1011.43
2017-06-09T04:16:27.334Z,1011.38
2017-06-09T04:17:37.280Z,1011.44
2017-06-09T04:18:47.225Z,1011.47
2017-06-09T04:19:57.176Z,1011.44
2017-06-09T04:21:07.276Z,1011.49
2017-06-09T04:22:17.228Z,1011.49
2017-06-09T04:23:27.178Z,1011.54
2017-06-09T04:24:36.809Z,1011.54
2017-06-09T04:25:46.444Z,1011.58
2017-06-09T04:26:56.394Z,1011.59
2017-06-09T04:28:06.656Z,1011.56
2017-06-09T04:29:16.927Z,1011.56
2017-06-09T04:30:27.184Z,1011.58
2017-06-09T04:31:37.137Z,1011.57
2017-06-09T04:32:47.081Z,1011.6
2017-06-09T04:33:57.345Z,1011.64
2017-06-09T04:35:07.301Z,1011.6
2017-06-09T04:36:17.573Z,1011.54
2017-06-09T04:37:27.835Z,1011.53
2017-06-09T04:38:38.094Z,1011.5
2017-06-09T04:39:48.054Z,1011.49
2017-06-09T04:40:58.003Z,1011.49
2017-06-09T04:42:07.957Z,1011.48
2017-06-09T04:43:17.904Z,1011.42
2017-06-09T04:44:28.171Z,1011.38
2017-06-09T04:45:38.120Z,1011.4
2017-06-09T04:46:48.387Z,1011.41
2017-06-09T04:47:58.655Z,1011.43
2017-06-09T04:49:08.914Z,1011.36
2017-06-09T04:50:18.865Z,1011.35
2017-06-09T04:51:29.129Z,1011.31
2017-06-09T04:52:39.078Z,1011.3
2017-06-09T04:53:48.714Z,1011.25
2017-06-09T04:54:58.184Z,1011.24
2017-06-09T04:56:07.820Z,1011.25
2017-06-09T04:57:17.455Z,1011.29
2017-06-09T04:58:27.406Z,1011.28
2017-06-09T04:59:37.351Z,1011.31
2017-06-09T05:00:47.290Z,1011.26
2017-06-09T05:01:57.550Z,1011.27
2017-06-09T05:03:06.910Z,1011.27
2017-06-09T05:04:17.176Z,1011.28
2017-06-09T05:05:27.440Z,1011.28
2017-06-09T05:06:37.230Z,1011.24
2017-06-09T05:07:47.511Z,1011.2
2017-06-09T05:08:57.162Z,1011.2
2017-06-09T05:10:07.107Z,1011.15
2017-06-09T05:11:17.056Z,1011.11
2017-06-09T05:12:27.321Z,1011.1
2017-06-09T05:13:37.321Z,1011.06
2017-06-09T05:14:47.584Z,1011.06
2017-06-09T05:15:57.844Z,1011.05
2017-06-09T05:17:07.483Z,1011.01
2017-06-09T05:18:17.438Z,1010.98
2017-06-09T05:19:27.699Z,1010.98
2017-06-09T05:20:37.960Z,1010.91
2017-06-09T05:21:47.912Z,1010.97
2017-06-09T05:22:58.181Z,1010.93
2017-06-09T05:24:07.960Z,1010.96
2017-06-09T05:25:17.907Z,1010.98
2017-06-09T05:26:27.850Z,1010.99
2017-06-09T05:27:38.115Z,1011.02
2017-06-09T05:28:48.068Z,1011.07
2017-06-09T05:29:58.331Z,1011.1
2017-06-09T05:31:08.594Z,1011.01
2017-06-09T05:32:18.545Z,1011.05
2017-06-09T05:33:28.807Z,1011.04
2017-06-09T05:34:38.452Z,1011.04
2017-06-09T05:35:48.450Z,1011.07
2017-06-09T05:36:58.412Z,1011.1
2017-06-09T05:38:08.364Z,1011.11
2017-06-09T05:39:18.631Z,1011.11
2017-06-09T05:40:27.953Z,1011.17
2017-06-09T05:41:38.369Z,1011.16
2017-06-09T05:42:48.349Z,1011.12
2017-06-09T05:43:57.666Z,1011.1
2017-06-09T05:45:07.930Z,1011.11
2017-06-09T05:46:17.911Z,1011.1
2017-06-09T05:47:28.178Z,1011.11
2017-06-09T05:48:38.446Z,1011.12
2017-06-09T05:49:48.406Z,1011.16
2017-06-09T05:50:58.674Z,1011.19
2017-06-09T05:52:08.641Z,1011.21
2017-06-09T05:53:18.590Z,1011.23
2017-06-09T05:54:28.571Z,1011.19
2017-06-09T05:55:38.209Z,1011.18
2017-06-09T05:56:48.469Z,1011.16
2017-06-09T05:57:58.418Z,1011.14
2017-06-09T05:59:08.872Z,1011.14
2017-06-09T06:00:19.141Z,1011.16
2017-06-09T06:01:29.093Z,1011.16
2017-06-09T06:02:39.047Z,1011.16
2017-06-09T06:03:49.308Z,1011.2
2017-06-09T06:04:59.256Z,1011.2
2017-06-09T06:06:09.524Z,1011.18
2017-06-09T06:07:19.154Z,1011.21
2017-06-09T06:08:28.787Z,1011.19
2017-06-09T06:09:38.428Z,1011.24
2017-06-09T06:10:48.693Z,1011.2
2017-06-09T06:11:58.961Z,1011.25
2017-06-09T06:13:08.284Z,1011.26
2017-06-09T06:14:18.553Z,1011.3
2017-06-09T06:15:28.501Z,1011.26
2017-06-09T06:16:38.135Z,1011.27
2017-06-09T06:17:48.083Z,1011.22
2017-06-09T06:18:58.343Z,1011.23
2017-06-09T06:20:07.981Z,1011.23
2017-06-09T06:21:17.934Z,1011.18
2017-06-09T06:22:27.715Z,1011.17
2017-06-09T06:23:37.353Z,1011.19
2017-06-09T06:24:46.994Z,1011.2
2017-06-09T06:25:57.258Z,1011.18
2017-06-09T06:27:07.525Z,1011.19
2017-06-09T06:28:17.784Z,1011.21
2017-06-09T06:29:27.732Z,1011.22
2017-06-09T06:30:37.678Z,1011.26
2017-06-09T06:31:47.626Z,1011.25
2017-06-09T06:32:57.581Z,1011.32
2017-06-09T06:34:07.536Z,1011.28
2017-06-09T06:35:17.801Z,1011.26
2017-06-09T06:36:27.750Z,1011.25
2017-06-09T06:37:37.400Z,1011.21
2017-06-09T06:38:47.655Z,1011.21
2017-06-09T06:39:58.066Z,1011.16
2017-06-09T06:41:07.392Z,1011.2
2017-06-09T06:42:17.356Z,1011.18
2017-06-09T06:43:27.306Z,1011.17
2017-06-09T06:44:37.587Z,1011.17
2017-06-09T06:45:47.855Z,1011.14
2017-06-09T06:46:57.494Z,1011.13
2017-06-09T06:48:07.445Z,1011.16
2017-06-09T06:49:17.393Z,1011.14
2017-06-09T06:50:27.492Z,1011.11
2017-06-09T06:51:37.459Z,1011.13
2017-06-09T06:52:47.412Z,1011.09
2017-06-09T06:53:57.683Z,1011.1
2017-06-09T06:55:07.630Z,1011.03
2017-06-09T06:56:17.894Z,1011.02
2017-06-09T06:57:27.842Z,1011.01
2017-06-09T06:58:37.487Z,1011.03
2017-06-09T06:59:47.440Z,1011.09
2017-06-09T07:00:57.701Z,1011.06
2017-06-09T07:02:07.648Z,1011.09
2017-06-09T07:03:17.594Z,1011.14
2017-06-09T07:04:27.548Z,1011.13
2017-06-09T07:05:37.822Z,1011.15
2017-06-09T07:06:48.101Z,1011.16
2017-06-09T07:07:58.201Z,1011.16
2017-06-09T07:09:08.157Z,1011.14
2017-06-09T07:10:18.417Z,1011.14
2017-06-09T07:11:28.681Z,1011.13
2017-06-09T07:12:38.320Z,1011.13
2017-06-09T07:13:47.956Z,1011.14
2017-06-09T07:14:58.216Z,1011.12
2017-06-09T07:16:08.481Z,1011.06
2017-06-09T07:17:18.424Z,1011.05
2017-06-09T07:18:28.685Z,1011.06
2017-06-09T07:19:38.471Z,1011.08
2017-06-09T07:20:48.734Z,1011.01
2017-06-09T07:22:07.091Z,1011.05
2017-06-09T07:23:17.354Z,1011.07
2017-06-09T07:24:27.311Z,1011.06
2017-06-09T07:25:37.605Z,1011.02
2017-06-09T07:26:46.931Z,1011.03
2017-06-09T07:27:56.887Z,1011
2017-06-09T07:29:06.848Z,1011.03
2017-06-09T07:30:16.832Z,1011.01
2017-06-09T07:31:26.310Z,1011.02
2017-06-09T07:32:36.578Z,1011.01
2017-06-09T07:33:46.527Z,1010.98
2017-06-09T07:34:56.792Z,1010.95
2017-06-09T07:36:07.071Z,1010.93
2017-06-09T07:37:17.347Z,1010.93
2017-06-09T07:38:27.654Z,1010.9
2017-06-09T07:39:37.919Z,1010.9
2017-06-09T07:40:48.193Z,1010.87
2017-06-09T07:41:58.143Z,1010.81
2017-06-09T07:43:08.561Z,1010.82
2017-06-09T07:44:18.822Z,1010.79
2017-06-09T07:45:28.456Z,1010.76
2017-06-09T07:46:38.727Z,1010.78
2017-06-09T07:47:48.993Z,1010.78
2017-06-09T07:48:59.004Z,1010.7
2017-06-09T07:50:08.954Z,1010.7
2017-06-09T07:51:19.407Z,1010.68
2017-06-09T07:52:29.355Z,1010.65
2017-06-09T07:53:39.302Z,1010.62
2017-06-09T07:54:48.939Z,1010.59
2017-06-09T07:55:58.890Z,1010.54
2017-06-09T07:57:08.843Z,1010.49
2017-06-09T07:58:18.792Z,1010.52
2017-06-09T07:59:28.748Z,1010.47
2017-06-09T08:00:39.015Z,1010.47
2017-06-09T08:01:49.283Z,1010.42
2017-06-09T08:02:59.228Z,1010.46
2017-06-09T08:04:08.558Z,1010.43
2017-06-09T08:05:18.828Z,1010.47
2017-06-09T08:06:28.785Z,1010.41
2017-06-09T08:07:38.740Z,1010.46
2017-06-09T08:08:48.690Z,1010.55
2017-06-09T08:09:58.639Z,1010.53
2017-06-09T08:11:08.284Z,1010.58
2017-06-09T08:12:18.383Z,1010.64
2017-06-09T08:13:28.022Z,1010.6
2017-06-09T08:14:37.344Z,1010.59
2017-06-09T08:15:46.988Z,1010.54
2017-06-09T08:16:57.249Z,1010.51
2017-06-09T08:18:07.509Z,1010.52
2017-06-09T08:19:16.829Z,1010.49
2017-06-09T08:20:27.103Z,1010.5
2017-06-09T08:21:37.109Z,1010.55
2017-06-09T08:22:47.380Z,1010.54
2017-06-09T08:23:57.409Z,1010.47
2017-06-09T08:25:07.048Z,1010.48
2017-06-09T08:26:17.324Z,1010.41
2017-06-09T08:27:27.589Z,1010.4
2017-06-09T08:28:37.540Z,1010.34
2017-06-09T08:29:47.330Z,1010.43
2017-06-09T08:30:57.276Z,1010.42
2017-06-09T08:32:07.540Z,1010.39
2017-06-09T08:33:16.856Z,1010.37
2017-06-09T08:34:26.496Z,1010.38
2017-06-09T08:35:36.166Z,1010.35
2017-06-09T08:36:46.441Z,1010.32
2017-06-09T08:37:55.768Z,1010.36
2017-06-09T08:39:06.045Z,1010.33
2017-06-09T08:40:15.368Z,1010.3
2017-06-09T08:41:25.780Z,1010.27
2017-06-09T08:42:35.726Z,1010.32
2017-06-09T08:43:45.678Z,1010.26
2017-06-09T08:44:55.627Z,1010.26
2017-06-09T08:46:05.263Z,1010.29
2017-06-09T08:47:14.587Z,1010.27
2017-06-09T08:48:24.535Z,1010.25
2017-06-09T08:49:34.165Z,1010.25
2017-06-09T08:50:44.128Z,1010.22
2017-06-09T08:51:54.403Z,1010.22
2017-06-09T08:53:04.191Z,1010.23
2017-06-09T08:54:13.826Z,1010.22
2017-06-09T08:55:22.828Z,1010.2
2017-06-09T08:56:33.099Z,1010.16
2017-06-09T08:57:43.080Z,1010.2
2017-06-09T08:58:53.389Z,1010.2
2017-06-09T09:00:03.384Z,1010.22
2017-06-09T09:01:13.338Z,1010.22
2017-06-09T09:02:23.597Z,1010.16
2017-06-09T09:03:33.861Z,1010.12
2017-06-09T09:04:43.810Z,1010.14
2017-06-09T09:05:54.085Z,1010.12
2017-06-09T09:07:04.352Z,1010.22
2017-06-09T09:08:14.303Z,1010.26
2017-06-09T09:09:24.564Z,1010.2
2017-06-09T09:10:34.032Z,1010.17
2017-06-09T09:11:43.980Z,1010.17
2017-06-09T09:12:54.240Z,1010.17
2017-06-09T09:14:04.195Z,1010.2
2017-06-09T09:15:14.457Z,1010.21
2017-06-09T09:16:24.410Z,1010.17
2017-06-09T09:17:34.357Z,1010.2
2017-06-09T09:18:44.622Z,1010.2
2017-06-09T09:19:54.570Z,1010.14
2017-06-09T09:21:04.519Z,1010.18
2017-06-09T09:22:14.618Z,1010.19
2017-06-09T09:23:24.260Z,1010.21
2017-06-09T09:24:34.522Z,1010.15
2017-06-09T09:25:44.787Z,1010.11
2017-06-09T09:26:55.052Z,1010.1
2017-06-09T09:28:05.001Z,1010.11
2017-06-09T09:29:15.266Z,1010.06
2017-06-09T09:30:24.902Z,1010.07
2017-06-09T09:31:35.164Z,1010.1
2017-06-09T09:32:45.434Z,1010.09
2017-06-09T09:33:55.699Z,1010.03
2017-06-09T09:35:05.651Z,1010.07
2017-06-09T09:36:15.918Z,1010.05
2017-06-09T09:37:26.186Z,1010.04
2017-06-09T09:38:35.824Z,1010.05
2017-06-09T09:39:45.454Z,1010.03
2017-06-09T09:40:55.760Z,1010.01
2017-06-09T09:42:06.025Z,1010.03
2017-06-09T09:43:16.291Z,1009.98
2017-06-09T09:44:26.257Z,1009.97
2017-06-09T09:45:36.358Z,1009.93
2017-06-09T09:46:46.308Z,1009.96
2017-06-09T09:47:55.947Z,1009.87
2017-06-09T09:49:05.274Z,1009.96
2017-06-09T09:50:14.915Z,1009.91
2017-06-09T09:51:24.551Z,1009.84
2017-06-09T09:52:34.818Z,1009.78
2017-06-09T09:53:45.084Z,1009.78
2017-06-09T09:54:55.038Z,1009.79
2017-06-09T09:56:05.309Z,1009.76
2017-06-09T09:57:15.715Z,1009.73
2017-06-09T09:58:25.980Z,1009.76
2017-06-09T09:59:36.243Z,1009.73
2017-06-09T10:00:46.502Z,1009.81
2017-06-09T10:01:56.451Z,1009.72
2017-06-09T10:03:06.408Z,1009.65
2017-06-09T10:04:16.672Z,1009.65
2017-06-09T10:05:26.934Z,1009.67
2017-06-09T10:06:36.564Z,1009.6
2017-06-09T10:07:46.829Z,1009.65
2017-06-09T10:08:56.783Z,1009.59
2017-06-09T10:10:07.048Z,1009.6
2017-06-09T10:11:16.687Z,1009.6
2017-06-09T10:12:26.322Z,1009.67
2017-06-09T10:13:36.275Z,1009.62
2017-06-09T10:14:46.220Z,1009.56
2017-06-09T10:15:55.863Z,1009.61
2017-06-09T10:17:05.512Z,1009.56
2017-06-09T10:18:15.465Z,1009.61
2017-06-09T10:19:25.738Z,1009.58
2017-06-09T10:20:35.844Z,1009.5
2017-06-09T10:21:45.799Z,1009.5
2017-06-09T10:22:55.749Z,1009.42
2017-06-09T10:24:05.382Z,1009.46
2017-06-09T10:25:15.653Z,1009.47
2017-06-09T10:26:25.600Z,1009.47
2017-06-09T10:27:35.237Z,1009.34
2017-06-09T10:28:45.184Z,1009.33
2017-06-09T10:29:55.139Z,1009.37
2017-06-09T10:31:04.774Z,1009.33
2017-06-09T10:32:15.035Z,1009.27
2017-06-09T10:33:24.978Z,1009.35
2017-06-09T10:34:34.925Z,1009.27
2017-06-09T10:35:44.877Z,1009.25
2017-06-09T10:36:55.138Z,1009.19
2017-06-09T10:38:04.638Z,1009.21
2017-06-09T10:39:14.900Z,1009.18
2017-06-09T10:40:25.162Z,1009.16
2017-06-09T10:41:35.111Z,1009.14
2017-06-09T10:42:45.372Z,1009.16
2017-06-09T10:43:55.007Z,1009.22
2017-06-09T10:45:05.280Z,1009.17
2017-06-09T10:46:15.545Z,1009.23
2017-06-09T10:47:25.485Z,1009.11
2017-06-09T10:48:35.746Z,1009.12
2017-06-09T10:49:45.844Z,1009.12
2017-06-09T10:50:55.805Z,1009.11
2017-06-09T10:52:06.062Z,1009.2
2017-06-09T10:53:15.691Z,1009.11
2017-06-09T10:54:25.322Z,1009.06
2017-06-09T10:55:35.280Z,1009.04
2017-06-09T10:56:45.225Z,1008.99
2017-06-09T10:57:55.498Z,1008.99
2017-06-09T10:59:05.144Z,1008.92
2017-06-09T11:00:15.104Z,1008.91
2017-06-09T11:01:25.205Z,1008.92
2017-06-09T11:02:35.154Z,1008.88
2017-06-09T11:03:45.097Z,1008.89
2017-06-09T11:04:55.362Z,1008.86
2017-06-09T11:06:05.308Z,1008.83
2017-06-09T11:07:15.570Z,1008.82
2017-06-09T11:08:25.835Z,1008.83
2017-06-09T11:09:35.783Z,1008.78
2017-06-09T11:10:46.046Z,1008.82
2017-06-09T11:11:55.997Z,1008.87
2017-06-09T11:13:05.952Z,1008.81
2017-06-09T11:14:15.588Z,1008.81
2017-06-09T11:15:25.857Z,1008.77
2017-06-09T11:16:35.182Z,1008.79
2017-06-09T11:17:45.136Z,1008.74
2017-06-09T11:18:54.922Z,1008.7
2017-06-09T11:20:05.180Z,1008.66
2017-06-09T11:21:15.127Z,1008.72
2017-06-09T11:22:24.137Z,1008.67
2017-06-09T11:23:34.401Z,1008.66
2017-06-09T11:24:44.357Z,1008.6
2017-06-09T11:25:54.006Z,1008.6
2017-06-09T11:27:04.272Z,1008.56
2017-06-09T11:28:14.222Z,1008.66
2017-06-09T11:29:23.859Z,1008.59
2017-06-09T11:30:33.809Z,1008.61
2017-06-09T11:31:44.063Z,1008.52
2017-06-09T11:32:54.323Z,1008.48
2017-06-09T11:34:04.268Z,1008.44
2017-06-09T11:35:14.529Z,1008.42
2017-06-09T11:36:24.618Z,1008.44
2017-06-09T11:37:34.883Z,1008.54
2017-06-09T11:38:44.831Z,1008.52
2017-06-09T11:39:54.191Z,1008.5
2017-06-09T11:41:04.456Z,1008.46
2017-06-09T11:42:14.718Z,1008.48
2017-06-09T11:43:24.662Z,1008.49
2017-06-09T11:44:34.619Z,1008.51
2017-06-09T11:45:44.568Z,1008.44
2017-06-09T11:46:54.829Z,1008.38
2017-06-09T11:48:04.925Z,1008.36
2017-06-09T11:49:15.181Z,1008.37
2017-06-09T11:50:25.144Z,1008.3
2017-06-09T11:51:35.094Z,1008.33
2017-06-09T11:52:45.044Z,1008.33
2017-06-09T11:53:55.306Z,1008.35
2017-06-09T11:55:05.568Z,1008.4
2017-06-09T11:56:15.201Z,1008.4
2017-06-09T11:57:24.831Z,1008.37
2017-06-09T11:58:34.771Z,1008.23
2017-06-09T11:59:45.033Z,1008.37
2017-06-09T12:00:54.668Z,1008.33
2017-06-09T12:02:04.619Z,1008.2
2017-06-09T12:03:14.881Z,1008.2
2017-06-09T12:04:25.292Z,1008.22
2017-06-09T12:05:35.554Z,1008.15
2017-06-09T12:06:45.500Z,1008.16
2017-06-09T12:07:55.458Z,1008.08
2017-06-09T12:09:04.784Z,1008.02
2017-06-09T12:10:15.055Z,1008
2017-06-09T12:11:25.308Z,1008.03
2017-06-09T12:12:35.570Z,1008.06
2017-06-09T12:13:45.200Z,1008.02
2017-06-09T12:14:55.150Z,1008.06
2017-06-09T12:16:05.095Z,1008.01
2017-06-09T12:17:15.400Z,1007.96
2017-06-09T12:18:25.347Z,1007.99
2017-06-09T12:19:35.008Z,1007.99
2017-06-09T12:20:44.644Z,1008.01
2017-06-09T12:21:55.053Z,1007.95
2017-06-09T12:23:05.003Z,1007.95
2017-06-09T12:24:15.260Z,1007.99
2017-06-09T12:25:24.886Z,1007.98
2017-06-09T12:26:34.838Z,1007.92
2017-06-09T12:27:45.170Z,1007.87
2017-06-09T12:28:55.117Z,1007.85
2017-06-09T12:30:04.754Z,1007.92
2017-06-09T12:31:14.708Z,1007.93
2017-06-09T12:32:24.668Z,1007.95
2017-06-09T12:33:34.627Z,1007.87
2017-06-09T12:34:44.573Z,1008.04
2017-06-09T12:35:54.838Z,1007.9
2017-06-09T12:37:04.780Z,1007.94
2017-06-09T12:38:14.731Z,1007.93
2017-06-09T12:39:24.677Z,1007.9
2017-06-09T12:40:34.943Z,1007.89
2017-06-09T12:41:45.206Z,1007.86
2017-06-09T12:42:55.468Z,1007.89
2017-06-09T12:44:05.412Z,1007.93
2017-06-09T12:45:15.510Z,1007.83
2017-06-09T12:46:25.456Z,1007.88
2017-06-09T12:47:35.713Z,1007.88
2017-06-09T12:48:45.349Z,1007.88
2017-06-09T12:49:55.298Z,1007.8
2017-06-09T12:51:04.623Z,1007.86
2017-06-09T12:52:13.939Z,1007.85
2017-06-09T12:53:23.894Z,1007.8
2017-06-09T12:54:33.843Z,1007.82
2017-06-09T12:55:44.107Z,1007.82
2017-06-09T12:56:54.519Z,1007.8
2017-06-09T12:58:04.469Z,1007.79
2017-06-09T12:59:14.409Z,1007.8
2017-06-09T13:00:23.418Z,1007.83
2017-06-09T13:01:33.059Z,1007.79
2017-06-09T13:02:43.326Z,1007.83
2017-06-09T13:03:53.271Z,1007.78
2017-06-09T13:05:02.909Z,1007.78
2017-06-09T13:06:12.859Z,1007.71
2017-06-09T13:07:23.121Z,1007.63
2017-06-09T13:08:32.436Z,1007.6
2017-06-09T13:09:42.383Z,1007.65
2017-06-09T13:10:51.696Z,1007.73
2017-06-09T13:12:01.959Z,1007.69
2017-06-09T13:13:11.912Z,1007.64
2017-06-09T13:14:21.555Z,1007.71
2017-06-09T13:15:31.503Z,1007.65
2017-06-09T13:16:41.456Z,1007.72
2017-06-09T13:17:51.409Z,1007.68
2017-06-09T13:19:01.043Z,1007.7
2017-06-09T13:20:10.996Z,1007.66
2017-06-09T13:21:21.260Z,1007.71
2017-06-09T13:22:30.899Z,1007.68
2017-06-09T13:23:40.848Z,1007.7
2017-06-09T13:24:50.988Z,1007.72
2017-06-09T13:26:00.937Z,1007.66
2017-06-09T13:27:11.194Z,1007.53
2017-06-09T13:28:21.135Z,1007.5
2017-06-09T13:29:31.396Z,1007.5
2017-06-09T13:30:41.350Z,1007.47
2017-06-09T13:31:51.614Z,1007.51
2017-06-09T13:33:01.561Z,1007.48
2017-06-09T13:34:11.835Z,1007.46
2017-06-09T13:35:22.098Z,1007.46
2017-06-09T13:36:32.360Z,1007.46
2017-06-09T13:37:42.303Z,1007.46
2017-06-09T13:38:51.932Z,1007.39
2017-06-09T13:40:01.575Z,1007.33
2017-06-09T13:41:11.206Z,1007.33
2017-06-09T13:42:21.617Z,1007.37
2017-06-09T13:43:31.876Z,1007.38
2017-06-09T13:44:41.833Z,1007.34
2017-06-09T13:45:51.150Z,1007.3
2017-06-09T13:47:01.415Z,1007.37
2017-06-09T13:48:11.367Z,1007.38
2017-06-09T13:49:21.627Z,1007.39
2017-06-09T13:50:31.586Z,1007.44
2017-06-09T13:51:41.853Z,1007.43
2017-06-09T13:52:51.807Z,1007.34
2017-06-09T13:54:01.954Z,1007.34
2017-06-09T13:55:12.222Z,1007.29
2017-06-09T13:56:22.510Z,1007.33
2017-06-09T13:57:32.460Z,1007.3
2017-06-09T13:58:42.723Z,1007.28
2017-06-09T13:59:52.677Z,1007.34
2017-06-09T14:01:02.949Z,1007.34
2017-06-09T14:02:12.582Z,1007.29
2017-06-09T14:03:22.525Z,1007.25
2017-06-09T14:04:32.477Z,1007.26
2017-06-09T14:05:42.887Z,1007.22
2017-06-09T14:06:53.157Z,1007.35
2017-06-09T14:08:03.423Z,1007.37
2017-06-09T14:09:13.059Z,1007.34
2017-06-09T14:10:23.005Z,1007.36